Time;durP1;ratioP1;P1;durP2;ratioP2;P2;SDS_P1;SDS_P2;PMS_P1;PMS_P2;Temp;Humidity;BMP_temperature;BMP_pressure;BME280_temperature;BME280_humidity;BME280_pressure;Samples;Min_cycle;Max_cycle;Signal;HPM_P1;HPM_P2
2021/06/22 00:01:09;;;;;;;2.05;1.70;;;17.50;85.50;;;;;;5019753;28;20033;-78
2021/06/22 00:03:34;;;;;;;5.03;1.90;;;17.50;85.30;;;;;;5025482;28;20546;-77
2021/06/22 00:06:00;;;;;;;3.47;1.67;;;17.50;85.20;;;;;;5020164;28;20029;-78
2021/06/22 00:08:25;;;;;;;6.35;2.17;;;17.50;85.00;;;;;;5033469;28;20041;-76
2021/06/22 00:10:51;;;;;;;1.50;1.40;;;17.50;85.40;;;;;;5016099;28;20036;-78
2021/06/22 00:13:18;;;;;;;2.42;1.58;;;17.50;84.80;;;;;;5024190;28;20040;-77
2021/06/22 00:15:44;;;;;;;1.80;1.70;;;17.50;84.50;;;;;;5023800;28;20041;-77
2021/06/22 00:18:10;;;;;;;2.50;1.60;;;17.40;84.60;;;;;;5009148;28;20041;-77
2021/06/22 00:20:35;;;;;;;3.40;1.80;;;17.40;85.00;;;;;;5021105;28;20391;-77
2021/06/22 00:23:01;;;;;;;3.25;1.60;;;17.40;85.70;;;;;;5021442;28;20549;-77
2021/06/22 00:25:27;;;;;;;2.03;1.60;;;17.30;84.60;;;;;;5024619;28;20099;-77
2021/06/22 00:27:53;;;;;;;2.63;1.80;;;17.30;84.80;;;;;;5021512;28;20033;-77
2021/06/22 00:30:20;;;;;;;2.58;1.80;;;17.20;84.50;;;;;;5022625;28;20033;-77
2021/06/22 00:32:46;;;;;;;2.88;1.75;;;17.20;84.70;;;;;;5022354;28;20037;-77
2021/06/22 00:35:13;;;;;;;1.90;1.80;;;17.20;85.00;;;;;;5022914;28;20035;-78
2021/06/22 00:37:41;;;;;;;1.98;1.88;;;17.20;86.00;;;;;;5016903;28;20034;-77
2021/06/22 00:40:07;;;;;;;;;;;17.10;85.00;;;;;;5017388;28;20415;-77
2021/06/22 00:42:33;;;;;;;4.70;2.00;;;17.20;85.10;;;;;;5024510;28;19924;-77
2021/06/22 00:44:59;;;;;;;3.33;1.88;;;17.10;84.60;;;;;;5013883;28;20038;-77
2021/06/22 00:47:27;;;;;;;3.80;2.13;;;17.10;85.00;;;;;;5022899;28;20045;-77
2021/06/22 00:49:53;;;;;;;2.20;1.93;;;17.10;84.80;;;;;;5024299;28;20032;-78
2021/06/22 00:52:20;;;;;;;2.28;2.00;;;17.10;84.90;;;;;;5018586;28;20303;-77
2021/06/22 00:54:46;;;;;;;2.13;1.92;;;17.00;86.30;;;;;;5024289;28;20084;-77
2021/06/22 00:57:12;;;;;;;2.33;1.88;;;17.00;86.70;;;;;;5023672;28;20041;-78
2021/06/22 00:59:38;;;;;;;2.58;2.10;;;17.00;86.10;;;;;;5020867;28;20113;-77
2021/06/22 01:02:04;;;;;;;2.70;1.60;;;17.00;86.70;;;;;;5017453;28;20126;-77
2021/06/22 01:04:31;;;;;;;3.55;2.08;;;16.90;86.60;;;;;;5031901;28;20021;-78
2021/06/22 01:06:58;;;;;;;2.38;1.95;;;16.90;86.90;;;;;;5022857;28;20169;-78
2021/06/22 01:09:24;;;;;;;2.35;1.63;;;16.90;87.10;;;;;;5016452;28;20431;-78
2021/06/22 01:11:51;;;;;;;3.70;2.00;;;16.90;86.60;;;;;;5020208;28;20029;-77
2021/06/22 01:14:17;;;;;;;2.35;2.17;;;16.90;86.00;;;;;;5021703;28;20048;-78
2021/06/22 01:16:42;;;;;;;2.67;1.90;;;16.90;86.50;;;;;;5020154;28;20492;-78
2021/06/22 01:19:09;;;;;;;1.92;1.83;;;16.90;85.90;;;;;;5022344;28;20029;-78
2021/06/22 01:21:36;;;;;;;2.10;1.92;;;16.90;85.60;;;;;;5024789;28;20014;-78
2021/06/22 01:24:08;;;;;;;2.38;2.17;;;16.90;85.80;;;;;;5017113;28;20391;-78
2021/06/22 01:26:35;;;;;;;2.40;2.20;;;16.90;86.10;;;;;;5021741;28;20025;-78
2021/06/22 01:29:02;;;;;;;2.77;2.10;;;16.90;85.80;;;;;;5019486;28;20025;-77
2021/06/22 01:31:28;;;;;;;2.33;1.75;;;16.90;86.10;;;;;;5015199;28;20046;-78
2021/06/22 01:33:54;;;;;;;2.35;2.13;;;16.90;86.00;;;;;;5020692;28;20029;-78
2021/06/22 01:36:20;;;;;;;2.28;2.08;;;16.90;86.40;;;;;;5031230;28;20029;-77
2021/06/22 01:38:46;;;;;;;2.28;2.08;;;16.80;86.80;;;;;;5021693;28;20113;-77
2021/06/22 01:41:12;;;;;;;1.83;1.73;;;16.90;87.20;;;;;;5019223;28;20108;-79
2021/06/22 01:43:37;;;;;;;8.88;2.15;;;16.90;87.00;;;;;;5028835;28;20551;-77
2021/06/22 01:46:04;;;;;;;3.28;2.42;;;16.90;86.60;;;;;;5012265;28;20033;-77
2021/06/22 01:48:30;;;;;;;4.18;1.67;;;16.90;86.50;;;;;;5019909;28;20032;-78
2021/06/22 01:50:56;;;;;;;2.17;2.00;;;16.90;86.40;;;;;;5025033;28;20032;-78
2021/06/22 01:53:23;;;;;;;2.17;1.98;;;16.90;88.00;;;;;;5024461;28;20026;-77
2021/06/22 01:55:50;;;;;;;3.72;2.15;;;16.80;87.90;;;;;;5023201;28;20024;-78
2021/06/22 01:58:17;;;;;;;2.13;1.98;;;16.90;87.60;;;;;;5021048;28;20025;-78
2021/06/22 02:00:44;;;;;;;3.90;2.30;;;16.80;87.50;;;;;;5022605;28;20408;-77
2021/06/22 02:03:15;;;;;;;2.50;2.30;;;16.90;86.90;;;;;;5022248;28;20030;-78
2021/06/22 02:05:41;;;;;;;2.33;1.92;;;16.90;86.90;;;;;;5016273;28;20044;-78
2021/06/22 02:08:06;;;;;;;2.65;1.90;;;16.90;86.50;;;;;;5013810;28;20033;-78
2021/06/22 02:10:32;;;;;;;1.92;1.80;;;16.90;86.60;;;;;;5017072;28;20041;-77
2021/06/22 02:12:57;;;;;;;2.15;2.00;;;16.90;86.50;;;;;;5026851;28;20151;-78
2021/06/22 02:15:23;;;;;;;2.80;2.13;;;16.90;86.20;;;;;;5020062;28;20049;-77
2021/06/22 02:17:49;;;;;;;2.08;1.83;;;16.80;86.30;;;;;;5022147;28;20488;-77
2021/06/22 02:20:15;;;;;;;3.35;2.30;;;16.90;86.30;;;;;;5022525;28;20030;-78
2021/06/22 02:22:41;;;;;;;2.13;2.00;;;16.90;86.50;;;;;;5024704;28;20033;-78
2021/06/22 02:25:09;;;;;;;2.92;2.63;;;16.90;86.60;;;;;;5014968;28;20034;-78
2021/06/22 02:27:34;;;;;;;2.40;2.20;;;16.90;86.40;;;;;;5017213;28;20033;-77
2021/06/22 02:30:00;;;;;;;2.42;1.90;;;16.90;86.60;;;;;;5019863;28;20092;-77
2021/06/22 02:32:29;;;;;;;2.78;2.25;;;16.80;86.70;;;;;;5044007;28;20046;-77
2021/06/22 02:34:54;;;;;;;2.20;2.00;;;16.80;87.60;;;;;;5029334;28;20658;-77
2021/06/22 02:37:20;;;;;;;4.10;2.35;;;16.80;88.00;;;;;;5022285;28;20032;-78
2021/06/22 02:39:46;;;;;;;3.50;2.40;;;16.70;88.70;;;;;;5031066;28;20038;-78
2021/06/22 02:42:12;;;;;;;3.85;2.60;;;16.80;88.30;;;;;;5019034;28;20023;-78
2021/06/22 02:44:38;;;;;;;2.33;2.13;;;16.80;88.40;;;;;;5021657;28;20033;-78
2021/06/22 02:47:04;;;;;;;4.57;2.78;;;16.80;88.10;;;;;;5020100;28;20044;-78
2021/06/22 02:49:30;;;;;;;4.05;2.35;;;16.80;87.40;;;;;;5018334;28;20091;-78
2021/06/22 02:51:57;;;;;;;2.38;2.15;;;16.90;87.50;;;;;;5031749;28;20029;-78
2021/06/22 02:54:24;;;;;;;2.53;2.33;;;16.80;87.50;;;;;;5023683;28;20116;-78
2021/06/22 02:56:50;;;;;;;2.33;2.13;;;16.90;87.60;;;;;;5031591;28;22194;-77
2021/06/22 02:59:15;;;;;;;2.30;2.10;;;16.90;87.70;;;;;;5030447;28;20037;-77
2021/06/22 03:01:41;;;;;;;3.42;2.40;;;16.90;88.00;;;;;;5026410;28;20075;-78
2021/06/22 03:04:07;;;;;;;3.35;2.17;;;17.00;87.70;;;;;;5032194;28;20025;-78
2021/06/22 03:06:32;;;;;;;2.28;2.17;;;16.90;87.90;;;;;;5025373;28;20030;-77
2021/06/22 03:08:58;;;;;;;3.80;2.00;;;16.90;88.00;;;;;;5025740;28;20033;-78
2021/06/22 03:11:24;;;;;;;2.08;1.88;;;16.80;87.90;;;;;;5020412;28;20116;-78
2021/06/22 03:13:49;;;;;;;3.83;2.40;;;16.90;87.40;;;;;;5017540;28;20037;-78
2021/06/22 03:16:15;;;;;;;2.30;2.10;;;16.90;87.50;;;;;;5025334;28;20044;-78
2021/06/22 03:18:41;;;;;;;2.33;2.13;;;16.90;87.10;;;;;;5020610;28;20074;-77
2021/06/22 03:21:06;;;;;;;2.35;2.03;;;16.90;87.30;;;;;;5029135;28;20029;-78
2021/06/22 03:23:32;;;;;;;2.70;2.50;;;16.90;88.10;;;;;;5020203;28;20033;-78
2021/06/22 03:25:57;;;;;;;4.28;2.35;;;16.90;87.50;;;;;;5025510;28;20070;-78
2021/06/22 03:28:23;;;;;;;2.17;1.92;;;16.90;87.40;;;;;;5020453;28;20087;-78
2021/06/22 03:30:49;;;;;;;1.75;1.65;;;17.00;87.20;;;;;;5018705;28;20034;-78
2021/06/22 03:33:16;;;;;;;2.20;2.00;;;17.00;87.00;;;;;;5033411;28;20112;-78
2021/06/22 03:35:41;;;;;;;2.40;2.15;;;16.90;86.70;;;;;;5024614;28;20021;-78
2021/06/22 03:38:07;;;;;;;2.78;2.05;;;16.90;87.10;;;;;;5019251;28;20096;-78
2021/06/22 03:40:33;;;;;;;2.15;2.05;;;16.90;87.10;;;;;;5024661;28;20029;-78
2021/06/22 03:42:58;;;;;;;2.13;1.90;;;16.90;88.00;;;;;;5034948;28;20078;-78
2021/06/22 03:45:24;;;;;;;2.92;2.22;;;16.90;87.00;;;;;;5024971;28;20025;-77
2021/06/22 03:47:51;;;;;;;2.92;1.95;;;16.90;87.40;;;;;;5031446;28;20028;-79
2021/06/22 03:50:17;;;;;;;2.30;2.10;;;16.90;86.90;;;;;;5025787;28;20037;-79
2021/06/22 03:52:43;;;;;;;2.42;2.20;;;16.90;86.70;;;;;;5027519;28;20120;-78
2021/06/22 03:57:55;;;;;;;3.45;1.98;;;17.00;87.50;;;;;;5019354;28;20049;-79
2021/06/22 04:00:21;;;;;;;2.28;2.10;;;16.90;86.90;;;;;;5019567;28;20030;-79
2021/06/22 04:02:47;;;;;;;2.13;1.90;;;17.00;87.20;;;;;;5022989;28;20152;-79
2021/06/22 04:05:13;;;;;;;2.35;2.15;;;16.90;87.50;;;;;;5032394;28;20472;-79
2021/06/22 04:07:39;;;;;;;2.55;2.35;;;16.80;88.00;;;;;;5028957;28;20040;-78
2021/06/22 04:10:05;;;;;;;2.60;2.30;;;16.80;88.30;;;;;;5025573;28;20052;-79
2021/06/22 04:12:31;;;;;;;3.95;2.20;;;16.90;88.10;;;;;;5017196;28;20255;-79
2021/06/22 04:14:57;;;;;;;2.75;2.28;;;16.80;88.70;;;;;;5021438;28;20025;-78
2021/06/22 04:17:23;;;;;;;3.30;2.80;;;16.80;89.10;;;;;;5023279;28;20048;-79
2021/06/22 04:19:48;;;;;;;5.18;3.15;;;16.80;89.90;;;;;;5024152;28;20401;-79
2021/06/22 04:22:14;;;;;;;4.28;2.72;;;16.70;90.40;;;;;;5023886;28;20026;-79
2021/06/22 04:24:39;;;;;;;7.15;3.20;;;16.70;90.40;;;;;;5020171;28;20634;-78
2021/06/22 04:27:05;;;;;;;5.85;3.00;;;16.70;90.80;;;;;;5021697;28;20030;-78
2021/06/22 04:29:31;;;;;;;3.90;3.28;;;16.60;91.10;;;;;;5024321;28;20163;-79
2021/06/22 04:31:57;;;;;;;3.40;3.00;;;16.60;91.20;;;;;;5022827;28;20108;-79
2021/06/22 04:34:23;;;;;;;4.10;3.10;;;16.60;91.20;;;;;;5018675;28;20141;-79
2021/06/22 04:36:48;;;;;;;4.43;3.20;;;16.60;91.20;;;;;;5025538;28;20033;-79
2021/06/22 04:39:14;;;;;;;2.97;2.78;;;16.70;91.10;;;;;;5023808;28;20705;-79
2021/06/22 04:41:40;;;;;;;2.72;2.53;;;16.70;91.50;;;;;;5022733;28;20036;-79
2021/06/22 04:44:06;;;;;;;4.32;2.90;;;16.70;91.10;;;;;;5019786;28;20067;-78
2021/06/22 04:46:31;;;;;;;3.22;2.97;;;16.70;91.10;;;;;;5024812;28;20041;-78
2021/06/22 04:48:57;;;;;;;8.45;2.85;;;16.70;91.20;;;;;;5021716;28;20504;-78
2021/06/22 04:51:23;;;;;;;3.03;2.45;;;16.70;91.10;;;;;;5027295;28;20017;-79
2021/06/22 04:53:49;;;;;;;3.05;2.75;;;16.70;91.00;;;;;;5025433;28;20060;-78
2021/06/22 04:56:15;;;;;;;3.22;2.92;;;16.70;91.30;;;;;;5024833;28;20049;-79
2021/06/22 04:58:41;;;;;;;3.85;3.03;;;16.70;91.10;;;;;;5025962;28;20112;-80
2021/06/22 05:01:07;;;;;;;3.10;2.70;;;16.70;91.00;;;;;;5021498;28;20037;-79
2021/06/22 05:03:35;;;;;;;4.03;3.38;;;16.60;91.10;;;;;;5019340;28;20025;-79
2021/06/22 05:06:00;;;;;;;4.13;3.50;;;16.70;91.20;;;;;;5019721;28;20045;-78
2021/06/22 05:08:26;;;;;;;8.48;3.75;;;16.70;91.40;;;;;;5021988;28;20500;-79
2021/06/22 05:10:53;;;;;;;5.10;4.00;;;16.70;91.40;;;;;;5024493;28;20025;-78
2021/06/22 05:13:21;;;;;;;4.05;3.63;;;16.70;91.70;;;;;;5017294;28;20084;-77
2021/06/22 05:15:47;;;;;;;4.10;3.70;;;16.80;91.60;;;;;;5028065;28;20159;-78
2021/06/22 05:18:13;;;;;;;4.20;3.55;;;16.80;91.50;;;;;;5021386;28;20496;-78
2021/06/22 05:20:39;;;;;;;4.57;3.45;;;16.80;91.60;;;;;;5022825;28;20072;-79
2021/06/22 05:23:04;;;;;;;4.13;3.70;;;16.90;91.50;;;;;;5016916;28;20089;-79
2021/06/22 05:25:30;;;;;;;4.18;3.58;;;17.00;91.30;;;;;;5024122;28;20037;-78
2021/06/22 05:27:56;;;;;;;5.45;3.03;;;17.10;91.40;;;;;;5018579;28;20063;-79
2021/06/22 05:30:21;;;;;;;4.38;3.75;;;17.20;91.00;;;;;;5018906;28;20025;-79
2021/06/22 05:32:47;;;;;;;6.03;3.95;;;17.20;90.80;;;;;;5017123;28;20029;-79
2021/06/22 05:35:13;;;;;;;5.47;4.55;;;17.20;90.80;;;;;;5025696;28;20029;-78
2021/06/22 05:37:39;;;;;;;6.60;4.47;;;17.30;91.00;;;;;;5021383;28;20036;-79
2021/06/22 05:40:09;;;;;;;4.43;3.97;;;17.40;91.50;;;;;;5019166;28;20042;-79
2021/06/22 05:42:35;;;;;;;5.65;3.88;;;17.50;91.80;;;;;;5020894;28;20054;-79
2021/06/22 05:45:02;;;;;;;4.20;3.80;;;17.60;91.00;;;;;;5018830;28;20507;-78
2021/06/22 05:47:27;;;;;;;4.78;3.30;;;17.60;91.00;;;;;;5013049;28;20064;-78
2021/06/22 05:49:53;;;;;;;3.60;3.30;;;17.70;90.40;;;;;;5015471;28;20065;-79
2021/06/22 05:52:18;;;;;;;4.45;3.63;;;17.80;90.00;;;;;;5026815;28;20033;-79
2021/06/22 05:54:44;;;;;;;3.72;3.20;;;17.80;89.50;;;;;;5019910;28;20044;-78
2021/06/22 05:57:10;;;;;;;3.60;3.30;;;17.80;89.60;;;;;;5026862;28;20025;-78
2021/06/22 05:59:36;;;;;;;4.32;3.55;;;17.90;89.70;;;;;;5016410;28;20880;-78
2021/06/22 06:02:01;;;;;;;5.93;3.35;;;17.90;89.80;;;;;;5023923;28;20120;-78
2021/06/22 06:04:28;;;;;;;5.60;3.13;;;18.00;90.20;;;;;;5034111;28;20659;-78
2021/06/22 06:06:55;;;;;;;3.55;3.08;;;18.00;90.00;;;;;;5029545;28;20025;-80
2021/06/22 06:09:23;;;;;;;4.95;3.50;;;18.00;89.10;;;;;;5027855;28;20029;-79
2021/06/22 06:11:48;;;;;;;7.50;3.33;;;18.00;89.70;;;;;;5025706;28;20026;-79
2021/06/22 06:14:14;;;;;;;4.65;3.45;;;18.00;88.90;;;;;;5022082;28;20032;-79
2021/06/22 06:16:39;;;;;;;5.60;3.67;;;18.10;90.00;;;;;;5045528;28;20055;-78
2021/06/22 06:19:05;;;;;;;3.63;3.10;;;18.10;89.60;;;;;;5022828;28;20061;-79
2021/06/22 06:21:31;;;;;;;3.95;3.05;;;18.00;88.90;;;;;;5014414;28;20033;-79
2021/06/22 06:23:57;;;;;;;4.90;2.90;;;18.10;90.10;;;;;;5021108;28;20105;-79
2021/06/22 06:26:25;;;;;;;4.53;3.25;;;18.10;89.50;;;;;;5018936;28;20128;-78
2021/06/22 06:28:53;;;;;;;;;;;18.20;89.30;;;;;;5029541;28;20032;-79
2021/06/22 06:31:19;;;;;;;5.43;3.25;;;18.20;89.50;;;;;;5032057;28;19921;-78
2021/06/22 06:33:45;;;;;;;4.63;3.03;;;18.30;89.30;;;;;;5030088;28;20029;-78
2021/06/22 06:36:10;;;;;;;4.75;3.30;;;18.30;88.80;;;;;;5023723;28;20473;-79
2021/06/22 06:38:36;;;;;;;5.88;2.97;;;18.40;89.40;;;;;;5017190;28;20026;-79
2021/06/22 06:41:02;;;;;;;4.15;3.42;;;18.50;89.20;;;;;;5031448;28;20037;-77
2021/06/22 06:43:27;;;;;;;3.42;3.13;;;18.70;90.30;;;;;;5028380;28;20024;-79
2021/06/22 06:45:53;;;;;;;4.50;2.80;;;18.90;89.30;;;;;;5032720;28;20030;-78
2021/06/22 06:48:19;;;;;;;3.05;2.70;;;19.10;87.90;;;;;;5025862;28;20037;-78
2021/06/22 06:50:45;;;;;;;3.80;2.53;;;19.10;84.30;;;;;;5030833;28;20036;-78
2021/06/22 06:53:10;;;;;;;4.30;3.10;;;19.20;87.50;;;;;;5035436;28;20044;-78
2021/06/22 06:55:42;;;;;;;5.13;2.60;;;19.30;87.30;;;;;;5031808;28;20040;-79
2021/06/22 06:58:08;;;;;;;3.03;2.72;;;19.40;86.40;;;;;;5026338;28;20128;-77
2021/06/22 07:00:37;;;;;;;3.53;2.78;;;19.50;85.50;;;;;;5024335;28;20037;-79
2021/06/22 07:03:04;;;;;;;3.03;2.45;;;19.50;84.90;;;;;;5024456;28;20029;-79
2021/06/22 07:05:31;;;;;;;4.38;3.17;;;19.50;83.00;;;;;;5028495;28;20799;-78
2021/06/22 07:07:58;;;;;;;3.50;2.50;;;19.50;86.20;;;;;;5027049;28;20514;-79
2021/06/22 07:10:25;;;;;;;3.83;2.60;;;19.60;84.60;;;;;;5027736;28;20030;-78
2021/06/22 07:12:51;;;;;;;4.53;2.50;;;19.50;83.50;;;;;;5033291;28;20475;-78
2021/06/22 07:15:16;;;;;;;2.95;2.60;;;19.50;83.40;;;;;;5025198;28;20034;-78
2021/06/22 07:17:43;;;;;;;3.58;2.53;;;19.60;82.80;;;;;;5025344;28;20053;-79
2021/06/22 07:20:09;;;;;;;2.60;2.40;;;19.70;81.90;;;;;;5028895;28;20018;-79
2021/06/22 07:22:35;;;;;;;3.00;2.17;;;19.70;81.60;;;;;;5023041;28;20026;-79
2021/06/22 07:25:02;;;;;;;5.72;2.70;;;19.70;80.20;;;;;;5035840;28;20104;-77
2021/06/22 07:27:28;;;;;;;2.78;2.40;;;19.70;80.60;;;;;;5030983;28;20079;-79
2021/06/22 07:29:54;;;;;;;3.35;2.25;;;19.90;81.40;;;;;;5028876;28;20042;-79
2021/06/22 07:32:20;;;;;;;5.95;2.70;;;19.90;81.00;;;;;;5026419;28;20026;-78
2021/06/22 07:34:46;;;;;;;3.60;2.88;;;20.00;81.10;;;;;;5028819;28;20843;-78
2021/06/22 07:37:12;;;;;;;3.38;3.08;;;20.10;80.50;;;;;;5026518;28;20523;-80
2021/06/22 07:39:38;;;;;;;4.88;2.83;;;20.10;81.10;;;;;;5032529;28;20017;-80
2021/06/22 07:42:04;;;;;;;6.80;2.60;;;20.10;80.20;;;;;;5030275;28;20041;-79
2021/06/22 07:44:29;;;;;;;3.60;3.00;;;20.00;79.40;;;;;;5027623;28;20076;-79
2021/06/22 07:46:55;;;;;;;4.13;2.75;;;20.10;81.60;;;;;;5021127;28;20042;-77
2021/06/22 07:49:21;;;;;;;2.90;2.63;;;20.20;81.40;;;;;;5023025;28;20025;-79
2021/06/22 07:51:47;;;;;;;2.00;1.90;;;20.30;83.10;;;;;;5026035;28;20666;-79
2021/06/22 07:54:13;;;;;;;2.85;1.98;;;20.30;79.90;;;;;;5029360;28;20504;-78
2021/06/22 07:56:39;;;;;;;2.67;1.83;;;20.30;79.00;;;;;;5022739;28;20031;-79
2021/06/22 07:59:05;;;;;;;2.20;2.00;;;20.30;78.90;;;;;;5028935;28;20096;-78
2021/06/22 08:01:31;;;;;;;4.55;2.72;;;20.40;79.00;;;;;;5024428;28;20030;-77
2021/06/22 08:03:56;;;;;;;2.95;2.25;;;20.50;80.30;;;;;;5036306;28;20676;-78
2021/06/22 08:06:22;;;;;;;3.33;1.90;;;20.60;80.50;;;;;;5026966;28;20112;-78
2021/06/22 08:08:47;;;;;;;4.05;2.05;;;20.70;79.00;;;;;;5025194;28;20119;-79
2021/06/22 08:11:13;;;;;;;3.08;1.92;;;20.80;78.00;;;;;;5022207;28;20029;-80
2021/06/22 08:13:39;;;;;;;2.60;1.92;;;20.70;77.50;;;;;;5026647;28;20086;-78
2021/06/22 08:16:05;;;;;;;2.67;1.58;;;20.80;76.90;;;;;;5021440;28;20112;-79
2021/06/22 08:18:33;;;;;;;2.42;1.85;;;20.90;77.30;;;;;;5024723;28;20108;-77
2021/06/22 08:20:59;;;;;;;2.30;2.10;;;21.00;75.00;;;;;;5030016;28;20036;-78
2021/06/22 08:23:24;;;;;;;3.28;1.98;;;21.00;75.50;;;;;;5022019;28;20037;-78
2021/06/22 08:25:52;;;;;;;3.13;1.63;;;20.90;77.40;;;;;;5024777;28;20116;-78
2021/06/22 08:28:18;;;;;;;1.92;1.60;;;21.00;74.70;;;;;;5031586;28;20030;-78
2021/06/22 08:30:44;;;;;;;4.60;2.00;;;21.10;75.80;;;;;;5022834;28;20029;-78
2021/06/22 08:33:11;;;;;;;2.40;1.85;;;21.20;74.10;;;;;;5032307;28;20041;-79
2021/06/22 08:35:37;;;;;;;1.80;1.67;;;21.20;74.50;;;;;;5029605;28;20026;-79
2021/06/22 08:38:09;;;;;;;2.88;1.83;;;21.20;75.60;;;;;;5024980;28;20037;-79
2021/06/22 08:40:39;;;;;;;1.85;1.50;;;21.30;77.60;;;;;;5020713;28;20022;-79
2021/06/22 08:43:06;;;;;;;2.65;1.35;;;21.30;71.70;;;;;;5025348;28;20021;-78
2021/06/22 08:45:32;;;;;;;2.03;1.20;;;21.30;70.50;;;;;;5027136;28;20418;-78
2021/06/22 08:47:57;;;;;;;2.08;1.70;;;21.40;70.80;;;;;;5029093;28;20036;-79
2021/06/22 08:50:23;;;;;;;2.15;1.67;;;21.50;72.30;;;;;;5023785;28;20072;-78
2021/06/22 08:52:49;;;;;;;4.18;1.50;;;21.50;71.80;;;;;;5026564;28;20109;-78
2021/06/22 08:55:26;;;;;;;2.58;1.83;;;21.60;71.10;;;;;;5023180;28;20045;-79
2021/06/22 08:57:54;;;;;;;3.88;1.70;;;21.70;71.90;;;;;;5027503;28;20562;-78
2021/06/22 09:00:21;;;;;;;1.58;1.48;;;21.70;71.50;;;;;;5023680;28;20172;-78
2021/06/22 09:02:56;;;;;;;1.83;1.52;;;21.80;73.00;;;;;;5026869;28;20115;-77
2021/06/22 09:05:25;;;;;;;2.53;1.70;;;21.90;72.60;;;;;;5023438;28;20079;-79
2021/06/22 09:07:53;;;;;;;3.42;1.35;;;21.90;72.30;;;;;;5022416;28;20090;-77
2021/06/22 09:10:25;;;;;;;1.77;1.40;;;21.90;72.40;;;;;;5029310;28;20025;-78
2021/06/22 09:12:52;;;;;;;2.30;1.55;;;21.80;69.90;;;;;;5023801;28;20063;-78
2021/06/22 09:15:23;;;;;;;3.40;1.80;;;21.90;71.80;;;;;;5025551;28;20053;-78
2021/06/22 09:17:50;;;;;;;2.72;1.63;;;22.10;71.60;;;;;;5024582;28;20029;-78
2021/06/22 09:20:40;;;;;;;2.10;1.40;;;22.20;73.20;;;;;;5026151;28;20493;-77
2021/06/22 09:23:19;;;;;;;1.83;1.40;;;22.20;70.60;;;;;;5027992;28;20212;-78
2021/06/22 09:25:49;;;;;;;1.70;1.38;;;22.10;68.30;;;;;;5027642;28;20044;-79
2021/06/22 09:28:22;;;;;;;1.70;1.40;;;22.20;68.20;;;;;;5025320;28;20460;-79
2021/06/22 09:31:05;;;;;;;1.90;1.40;;;22.10;70.30;;;;;;5028573;28;20045;-79
2021/06/22 09:33:42;;;;;;;1.65;1.50;;;22.10;69.10;;;;;;5036459;28;20037;-78
2021/06/22 09:36:21;;;;;;;1.95;1.50;;;22.20;71.50;;;;;;5023528;28;20126;-78
2021/06/22 09:38:54;;;;;;;5.45;1.63;;;22.00;67.70;;;;;;5025436;28;20030;-78
2021/06/22 09:41:30;;;;;;;1.80;1.70;;;22.00;71.10;;;;;;5035032;28;20021;-78
2021/06/22 09:44:04;;;;;;;4.43;1.77;;;22.20;74.40;;;;;;5029999;28;20117;-78
2021/06/22 09:46:32;;;;;;;2.35;1.98;;;22.50;69.20;;;;;;5030262;28;20025;-78
2021/06/22 09:49:00;;;;;;;2.10;1.70;;;22.50;69.50;;;;;;5029552;28;20751;-79
2021/06/22 09:51:32;;;;;;;;;;;22.30;68.80;;;;;;5024205;28;20037;-78
2021/06/22 09:54:34;;;;;;;1.83;1.60;;;22.10;68.10;;;;;;5026532;28;19913;-79
2021/06/22 09:57:03;;;;;;;4.13;1.73;;;22.20;71.30;;;;;;5012377;28;20045;-78
2021/06/22 09:59:32;;;;;;;2.03;1.40;;;22.40;68.50;;;;;;5023902;28;20014;-78
2021/06/22 10:02:08;;;;;;;1.98;1.67;;;22.70;69.70;;;;;;5031210;28;20042;-79
2021/06/22 10:04:35;;;;;;;1.77;1.67;;;22.80;67.30;;;;;;5028848;28;20090;-79
2021/06/22 10:07:01;;;;;;;1.80;1.70;;;22.80;69.80;;;;;;5031795;28;20582;-78
2021/06/22 10:09:32;;;;;;;1.75;1.65;;;22.70;69.20;;;;;;5028569;28;20026;-79
2021/06/22 10:12:04;;;;;;;2.28;2.10;;;22.30;69.40;;;;;;5029898;28;20032;-79
2021/06/22 10:14:40;;;;;;;2.92;1.67;;;22.30;71.10;;;;;;5026161;28;20041;-79
2021/06/22 10:17:08;;;;;;;1.75;1.65;;;22.50;68.90;;;;;;5030799;28;20104;-79
2021/06/22 10:19:36;;;;;;;2.38;1.42;;;22.60;69.70;;;;;;5027274;28;20394;-79
2021/06/22 10:22:05;;;;;;;1.73;1.63;;;22.70;70.60;;;;;;5030469;28;20044;-78
2021/06/22 10:24:34;;;;;;;1.60;1.40;;;22.50;69.00;;;;;;5029925;28;20049;-78
2021/06/22 10:27:00;;;;;;;1.85;1.50;;;22.30;68.40;;;;;;5028931;28;20038;-78
2021/06/22 10:29:28;;;;;;;1.98;1.77;;;22.50;67.10;;;;;;5031249;28;20246;-77
2021/06/22 10:31:56;;;;;;;1.70;1.60;;;22.70;67.10;;;;;;5026395;28;20048;-79
2021/06/22 10:34:22;;;;;;;3.75;2.13;;;22.60;68.20;;;;;;5024564;28;20456;-78
2021/06/22 10:37:08;;;;;;;1.63;1.50;;;22.80;70.60;;;;;;5027027;28;20041;-78
2021/06/22 10:39:52;;;;;;;1.80;1.70;;;22.80;67.70;;;;;;5029428;28;20033;-79
2021/06/22 10:42:19;;;;;;;1.80;1.70;;;22.50;69.90;;;;;;5027348;28;20021;-78
2021/06/22 10:44:47;;;;;;;1.85;1.73;;;22.40;68.20;;;;;;5026009;28;20032;-79
2021/06/22 10:47:19;;;;;;;1.50;1.40;;;22.60;71.20;;;;;;5022879;28;20651;-79
2021/06/22 10:50:17;;;;;;;4.15;1.60;;;22.80;68.70;;;;;;5023739;28;20037;-78
2021/06/22 10:52:46;;;;;;;2.05;1.30;;;23.10;67.30;;;;;;5032481;28;20028;-79
2021/06/22 10:55:29;;;;;;;2.97;1.90;;;23.20;66.40;;;;;;5017128;28;20032;-79
2021/06/22 10:58:05;;;;;;;2.53;1.42;;;23.00;68.50;;;;;;5025849;28;20041;-79
2021/06/22 11:00:36;;;;;;;2.88;1.40;;;22.70;65.80;;;;;;5029942;28;20496;-79
2021/06/22 11:03:04;;;;;;;4.25;1.75;;;22.70;67.10;;;;;;5033731;28;20033;-79
2021/06/22 11:05:32;;;;;;;3.05;1.67;;;23.00;67.30;;;;;;5024865;28;20040;-79
2021/06/22 11:08:13;;;;;;;2.42;1.48;;;23.30;66.70;;;;;;5021877;28;20404;-79
2021/06/22 11:10:48;;;;;;;2.00;1.88;;;23.40;66.90;;;;;;5029091;28;20033;-79
2021/06/22 11:13:42;;;;;;;1.48;1.30;;;23.40;66.60;;;;;;5017772;28;20029;-79
2021/06/22 11:16:14;;;;;;;1.65;1.40;;;23.40;65.50;;;;;;5027089;28;20090;-79
2021/06/22 11:18:55;;;;;;;2.42;1.65;;;23.20;66.50;;;;;;5020150;28;20039;-79
2021/06/22 11:21:21;;;;;;;1.73;1.63;;;23.20;67.40;;;;;;5038257;28;20108;-79
2021/06/22 11:24:01;;;;;;;1.85;1.67;;;23.50;68.10;;;;;;5043266;28;22397;-79
2021/06/22 11:26:28;;;;;;;2.05;1.55;;;23.50;65.40;;;;;;5022100;28;20029;-78
2021/06/22 11:28:59;;;;;;;1.33;1.23;;;23.30;64.50;;;;;;5021666;28;20052;-78
2021/06/22 11:31:34;;;;;;;3.70;1.40;;;23.40;64.40;;;;;;5024044;28;20284;-78
2021/06/22 11:34:11;;;;;;;1.85;1.58;;;23.40;65.60;;;;;;5028298;28;20548;-79
2021/06/22 11:36:45;;;;;;;1.35;1.25;;;23.50;67.80;;;;;;5028336;28;20097;-78
2021/06/22 11:39:30;;;;;;;1.42;1.20;;;23.70;64.60;;;;;;5025768;28;20025;-79
2021/06/22 11:42:11;;;;;;;2.17;1.20;;;23.60;61.90;;;;;;5027447;28;20048;-79
2021/06/22 11:44:38;;;;;;;2.65;1.20;;;23.40;63.10;;;;;;5026787;28;20036;-78
2021/06/22 11:47:05;;;;;;;4.30;1.20;;;23.40;65.30;;;;;;5019907;28;20577;-79
2021/06/22 11:49:38;;;;;;;3.20;1.20;;;23.60;64.10;;;;;;5027408;28;20029;-77
2021/06/22 11:52:05;;;;;;;3.08;1.80;;;23.80;63.30;;;;;;5028286;28;20089;-79
2021/06/22 11:55:02;;;;;;;1.30;1.20;;;23.90;63.10;;;;;;5036492;28;20117;-77
2021/06/22 11:57:30;;;;;;;1.30;1.20;;;23.80;61.50;;;;;;5012446;28;20026;-78
2021/06/22 11:59:58;;;;;;;1.65;1.40;;;23.70;62.20;;;;;;5027567;28;20025;-79
2021/06/22 12:02:24;;;;;;;1.65;1.27;;;23.70;63.60;;;;;;5023379;28;20131;-79
2021/06/22 12:04:50;;;;;;;3.17;1.50;;;23.60;64.00;;;;;;5028390;28;20033;-78
2021/06/22 12:07:17;;;;;;;1.45;1.30;;;23.60;61.10;;;;;;5022238;28;20088;-78
2021/06/22 12:09:46;;;;;;;1.45;1.17;;;23.50;61.30;;;;;;5034325;28;20037;-78
2021/06/22 12:12:14;;;;;;;1.88;1.25;;;23.40;61.70;;;;;;5026159;28;20025;-78
2021/06/22 12:14:44;;;;;;;2.40;1.20;;;23.40;63.30;;;;;;5023170;28;20064;-79
2021/06/22 12:17:18;;;;;;;1.60;1.10;;;23.30;63.20;;;;;;5023964;28;20037;-78
2021/06/22 12:19:45;;;;;;;1.40;1.30;;;23.30;65.50;;;;;;5022198;28;20036;-79
2021/06/22 12:22:15;;;;;;;1.30;1.20;;;23.40;63.10;;;;;;5024497;28;20028;-78
2021/06/22 12:24:43;;;;;;;2.40;1.42;;;23.30;63.70;;;;;;5026488;28;20064;-78
2021/06/22 12:27:10;;;;;;;2.33;1.27;;;23.30;63.70;;;;;;5025358;28;20026;-78
2021/06/22 12:29:37;;;;;;;1.15;1.05;;;23.40;64.80;;;;;;5021128;28;20029;-78
2021/06/22 12:32:07;;;;;;;2.03;1.10;;;23.60;64.30;;;;;;5022082;28;20068;-78
2021/06/22 12:34:38;;;;;;;1.50;1.40;;;23.50;62.60;;;;;;5025711;28;20112;-78
2021/06/22 12:37:16;;;;;;;3.67;1.05;;;23.50;62.50;;;;;;5037939;28;20021;-78
2021/06/22 12:39:42;;;;;;;;;;;23.60;64.70;;;;;;5019943;28;20056;-79
2021/06/22 12:42:10;;;;;;;2.40;1.25;;;23.80;63.90;;;;;;5018626;28;20085;-78
2021/06/22 12:44:36;;;;;;;;;;;23.80;60.50;;;;;;5025675;28;20100;-79
2021/06/22 12:47:07;;;;;;;2.25;1.40;;;23.80;62.10;;;;;;5024266;28;20003;-79
2021/06/22 12:49:36;;;;;;;1.10;1.10;;;23.80;63.10;;;;;;5028175;28;20064;-79
2021/06/22 12:52:03;;;;;;;1.63;1.30;;;23.70;60.40;;;;;;5027475;28;20837;-79
2021/06/22 12:54:31;;;;;;;1.40;1.30;;;23.60;61.80;;;;;;5027287;28;20032;-78